createdAt,value
2023-05-01T00:00:09.722Z,26.40
2023-05-01T00:02:56.880Z,23.10
2023-05-01T00:05:26.983Z,21.00
2023-05-01T00:07:56.029Z,22.50
2023-05-01T00:10:24.742Z,23.30
2023-05-01T00:12:51.252Z,24.50
2023-05-01T00:15:18.004Z,27.70
2023-05-01T00:17:47.254Z,23.30
2023-05-01T00:20:14.322Z,23.50
2023-05-01T00:22:41.032Z,23.80
2023-05-01T00:25:12.096Z,28.10
2023-05-01T00:27:38.994Z,28.00
2023-05-01T00:30:11.438Z,30.30
2023-05-01T00:32:38.061Z,34.30
2023-05-01T00:35:07.681Z,33.60
2023-05-01T00:37:36.558Z,25.80
2023-05-01T00:40:04.632Z,27.80
2023-05-01T00:42:35.283Z,36.40
2023-05-01T00:45:07.664Z,38.50
2023-05-01T00:47:42.334Z,40.20
2023-05-01T00:50:11.588Z,36.90
2023-05-01T00:52:42.916Z,49.40
2023-05-01T00:55:09.584Z,45.70
2023-05-01T00:57:38.622Z,46.10
2023-05-01T01:00:11.769Z,45.90
2023-05-01T01:02:44.733Z,50.20
2023-05-01T01:05:15.032Z,46.60
2023-05-01T01:07:50.998Z,40.90
2023-05-01T01:26:59.363Z,54.30
2023-05-01T01:29:49.158Z,62.00
2023-05-01T01:32:53.182Z,58.70
2023-05-01T01:35:26.490Z,59.00
2023-05-01T01:40:37.137Z,51.00
2023-05-01T01:43:15.415Z,45.30
2023-05-01T01:45:50.061Z,50.10
2023-05-01T01:48:28.914Z,53.70
2023-05-01T01:50:59.358Z,47.80
2023-05-01T01:53:31.154Z,50.70
2023-05-01T01:56:03.859Z,52.90
2023-05-01T01:58:35.105Z,50.20
2023-05-01T02:01:08.469Z,47.90
2023-05-01T02:03:40.069Z,52.20
2023-05-01T02:06:15.518Z,42.90
2023-05-01T02:08:46.511Z,41.00
2023-05-01T02:11:18.368Z,43.90
2023-05-01T02:13:49.629Z,43.40
2023-05-01T02:16:19.501Z,40.80
2023-05-01T02:18:48.165Z,42.10
2023-05-01T02:21:19.501Z,56.20
2023-05-01T02:23:49.912Z,55.70
2023-05-01T02:26:19.381Z,63.80
2023-05-01T02:28:47.412Z,59.80
2023-05-01T02:31:17.685Z,49.00
2023-05-01T02:33:45.965Z,53.00
2023-05-01T02:36:16.568Z,49.30
2023-05-01T02:38:51.156Z,45.10
2023-05-01T02:41:22.702Z,46.90
2023-05-01T02:44:01.541Z,42.40
2023-05-01T02:46:32.356Z,48.50
2023-05-01T02:49:07.136Z,49.80
2023-05-01T02:51:42.668Z,53.80
2023-05-01T02:54:13.532Z,51.70
2023-05-01T02:56:44.067Z,53.90
2023-05-01T02:59:12.171Z,54.60
2023-05-01T03:01:44.541Z,57.40
2023-05-01T03:04:15.046Z,49.10
2023-05-01T03:06:44.648Z,51.50
2023-05-01T03:09:12.874Z,56.00
2023-05-01T03:11:40.920Z,54.10
2023-05-01T03:14:11.279Z,47.40
2023-05-01T03:16:41.879Z,53.80
2023-05-01T03:19:12.924Z,52.30
2023-05-01T03:21:40.915Z,56.30
2023-05-01T03:24:10.225Z,58.10
2023-05-01T03:26:38.464Z,58.80
2023-05-01T03:29:09.923Z,62.80
2023-05-01T03:31:38.467Z,68.00
2023-05-01T03:34:11.845Z,68.20
2023-05-01T03:36:40.520Z,72.00
2023-05-01T03:39:10.999Z,81.90
2023-05-01T03:41:59.791Z,74.60
2023-05-01T03:44:31.072Z,87.20
2023-05-01T03:47:01.904Z,83.70
2023-05-01T03:49:30.349Z,86.60
2023-05-01T03:52:00.310Z,96.20
2023-05-01T03:54:28.578Z,75.60
2023-05-01T03:57:31.399Z,67.20
2023-05-01T03:59:59.566Z,44.70
2023-05-01T04:02:28.042Z,36.60
2023-05-01T04:04:56.275Z,29.90
2023-05-01T04:07:24.792Z,37.20
2023-05-01T04:09:57.898Z,30.50
2023-05-01T04:12:28.423Z,33.80
2023-05-01T04:15:01.100Z,35.90
2023-05-01T04:19:57.594Z,28.40
2023-05-01T04:22:28.876Z,28.60
2023-05-01T04:24:57.056Z,27.50
2023-05-01T04:27:27.439Z,27.50
2023-05-01T04:29:58.434Z,21.20
2023-05-01T04:32:26.611Z,25.00
2023-05-01T04:34:57.828Z,28.50
2023-05-01T04:37:25.829Z,21.90
2023-05-01T04:39:56.405Z,23.50
2023-05-01T04:42:33.932Z,18.70
2023-05-01T04:45:06.795Z,23.30
2023-05-01T04:47:39.393Z,19.50
2023-05-01T04:50:10.484Z,22.20
2023-05-01T04:52:43.193Z,22.10
2023-05-01T04:55:13.146Z,24.30
2023-05-01T04:57:54.208Z,21.40
2023-05-01T05:00:21.972Z,21.60
2023-05-01T05:02:54.631Z,16.60
2023-05-01T05:05:25.252Z,23.30
2023-05-01T05:08:04.169Z,22.20
2023-05-01T05:10:49.793Z,23.70
2023-05-01T05:16:18.114Z,15.60
2023-05-01T05:18:51.000Z,21.20
2023-05-01T05:21:19.335Z,21.40
2023-05-01T05:23:56.085Z,22.40
2023-05-01T05:26:25.069Z,22.00
2023-05-01T05:28:58.034Z,17.50
2023-05-01T05:31:26.147Z,23.30
2023-05-01T05:34:06.335Z,20.80
2023-05-01T05:36:41.659Z,23.20
2023-05-01T05:39:16.989Z,22.70
2023-05-01T05:42:17.102Z,19.30
2023-05-01T05:44:45.208Z,22.70
2023-05-01T05:47:13.278Z,18.70
2023-05-01T05:49:41.305Z,16.30
2023-05-01T05:52:11.732Z,19.50
2023-05-01T05:57:14.783Z,19.40
2023-05-01T05:59:47.675Z,21.00
2023-05-01T06:02:18.251Z,21.40
2023-05-01T06:04:48.926Z,20.60
2023-05-01T06:07:18.872Z,20.70
2023-05-01T06:09:46.960Z,24.40
2023-05-01T06:12:14.841Z,26.20
2023-05-01T06:14:43.252Z,22.00
2023-05-01T06:17:15.798Z,22.30
2023-05-01T06:19:46.102Z,18.60
2023-05-01T06:22:14.306Z,16.50
2023-05-01T06:24:52.671Z,15.10
2023-05-01T06:27:28.391Z,18.10
2023-05-01T06:29:56.768Z,20.40
2023-05-01T06:32:25.851Z,15.10
2023-05-01T06:34:56.669Z,14.00
2023-05-01T06:41:57.652Z,14.50
2023-05-01T06:44:36.306Z,15.30
2023-05-01T06:47:04.408Z,14.00
2023-05-01T06:49:35.122Z,13.60
2023-05-01T06:52:05.480Z,14.20
2023-05-01T06:54:34.494Z,20.70
2023-05-01T06:57:07.237Z,14.80
2023-05-01T06:59:35.793Z,13.00
2023-05-01T07:02:04.124Z,17.70
2023-05-01T07:04:34.586Z,15.70
2023-05-01T07:07:04.825Z,14.50
2023-05-01T07:09:32.873Z,14.20
2023-05-01T07:12:05.776Z,17.40
2023-05-01T07:14:36.053Z,13.60
2023-05-01T07:17:06.842Z,18.90
2023-05-01T07:19:39.692Z,14.80
2023-05-01T07:22:51.167Z,12.90
2023-05-01T07:25:20.379Z,13.10
2023-05-01T07:27:48.477Z,10.80
2023-05-01T07:30:16.442Z,12.00
2023-05-01T07:32:45.104Z,11.50
2023-05-01T07:35:13.616Z,9.70
2023-05-01T07:37:41.631Z,13.10
2023-05-01T07:40:10.241Z,13.20
2023-05-01T07:42:38.170Z,8.50
2023-05-01T07:45:08.940Z,9.90
2023-05-01T07:47:39.181Z,9.50
2023-05-01T07:50:11.570Z,13.70
2023-05-01T07:52:43.488Z,8.60
2023-05-01T07:55:13.789Z,6.00
2023-05-01T07:57:47.341Z,6.80
2023-05-01T08:00:18.089Z,11.40
2023-05-01T08:02:46.026Z,9.80
2023-05-01T08:05:14.380Z,7.90
2023-05-01T08:07:44.297Z,8.50
2023-05-01T08:10:15.057Z,7.50
2023-05-01T08:12:45.421Z,10.60
2023-05-01T08:15:13.614Z,8.60
2023-05-01T08:17:44.045Z,8.40
2023-05-01T08:20:12.817Z,8.70
2023-05-01T08:22:45.538Z,6.50
2023-05-01T08:27:41.626Z,10.70
2023-05-01T08:30:12.519Z,7.10
2023-05-01T08:32:40.776Z,8.00
2023-05-01T08:35:11.797Z,7.20
2023-05-01T08:37:39.758Z,8.80
2023-05-01T08:40:09.137Z,9.30
2023-05-01T08:42:39.716Z,8.60
2023-05-01T08:45:10.745Z,9.20
2023-05-01T08:47:40.312Z,7.60
2023-05-01T08:50:14.023Z,7.10
2023-05-01T08:52:47.367Z,8.90
2023-05-01T08:55:19.470Z,8.70
2023-05-01T08:57:53.637Z,7.90
2023-05-01T09:00:21.938Z,9.20
2023-05-01T09:02:52.069Z,6.90
2023-05-01T09:05:21.071Z,7.60
2023-05-01T09:07:50.073Z,6.40
2023-05-01T09:10:19.124Z,6.90
2023-05-01T09:12:52.590Z,7.10
2023-05-01T09:15:22.810Z,9.40
2023-05-01T09:17:51.012Z,10.30
2023-05-01T09:20:24.318Z,10.80
2023-05-01T09:22:52.560Z,6.70
2023-05-01T09:25:22.945Z,9.10
2023-05-01T09:27:53.701Z,5.60
2023-05-01T09:30:34.197Z,8.10
2023-05-01T09:33:15.268Z,6.70
2023-05-01T09:35:59.667Z,8.00
2023-05-01T09:38:35.753Z,4.70
2023-05-01T09:41:05.207Z,5.00
2023-05-01T09:43:36.114Z,7.50
2023-05-01T09:46:07.396Z,4.50
2023-05-01T09:48:37.428Z,6.90
2023-05-01T09:51:24.390Z,6.00
2023-05-01T09:53:55.404Z,6.90
2023-05-01T09:56:28.177Z,5.70
2023-05-01T09:58:57.740Z,8.70
2023-05-01T10:01:44.065Z,7.80
2023-05-01T10:04:12.663Z,8.90
2023-05-01T10:06:42.936Z,5.80
2023-05-01T10:09:27.482Z,6.70
2023-05-01T10:12:01.992Z,6.10
2023-05-01T10:14:33.973Z,5.20
2023-05-01T10:17:17.248Z,7.80
2023-05-01T10:19:45.494Z,7.70
2023-05-01T10:22:18.515Z,6.40
2023-05-01T10:24:46.580Z,8.80
2023-05-01T10:27:14.879Z,7.70
2023-05-01T10:29:47.311Z,7.40
2023-05-01T10:32:20.639Z,9.60
2023-05-01T10:34:58.852Z,7.70
2023-05-01T10:37:59.933Z,7.00
2023-05-01T10:40:40.870Z,9.60
2023-05-01T10:43:31.183Z,7.40
2023-05-01T10:46:07.377Z,5.80
2023-05-01T10:48:40.802Z,7.00
2023-05-01T10:51:11.188Z,6.00
2023-05-01T10:53:46.129Z,8.50
2023-05-01T10:56:27.101Z,5.70
2023-05-01T10:58:58.213Z,7.30
2023-05-01T11:01:32.682Z,7.30
2023-05-01T11:04:08.248Z,5.90
2023-05-01T11:06:38.119Z,7.60
2023-05-01T11:09:43.078Z,8.80
2023-05-01T11:12:12.947Z,5.90
2023-05-01T11:15:05.600Z,8.90
2023-05-01T11:20:29.151Z,5.50
2023-05-01T11:22:57.886Z,6.90
2023-05-01T11:25:32.480Z,7.70
2023-05-01T11:28:07.183Z,7.50
2023-05-01T11:30:39.936Z,6.90
2023-05-01T11:35:42.077Z,8.10
2023-05-01T11:38:19.057Z,5.60
2023-05-01T11:40:55.893Z,7.90
2023-05-01T11:43:23.756Z,5.20
2023-05-01T11:46:05.794Z,5.90
2023-05-01T11:49:37.615Z,4.30
2023-05-01T11:51:59.327Z,7.40
2023-05-01T11:54:29.810Z,5.00
2023-05-01T11:57:02.339Z,6.40
2023-05-01T12:02:05.085Z,5.00
2023-05-01T12:04:58.766Z,4.70
2023-05-01T12:07:27.356Z,6.00
2023-05-01T12:10:01.413Z,5.40
2023-05-01T12:12:29.835Z,4.40
2023-05-01T12:15:19.207Z,6.10
2023-05-01T12:17:57.267Z,5.60
2023-05-01T12:20:54.590Z,6.50
2023-05-01T12:23:46.241Z,6.60
2023-05-01T12:26:25.790Z,5.80
2023-05-01T12:28:56.693Z,3.50
2023-05-01T12:31:31.610Z,4.30
2023-05-01T12:34:06.666Z,7.50
2023-05-01T12:36:37.834Z,8.10
2023-05-01T12:39:12.448Z,4.90
2023-05-01T12:42:03.968Z,7.80
2023-05-01T12:44:58.776Z,4.00
2023-05-01T12:47:27.029Z,4.40
2023-05-01T12:50:03.428Z,5.00
2023-05-01T12:52:35.432Z,6.80
2023-05-01T12:55:10.635Z,6.00
2023-05-01T12:57:54.186Z,5.10
2023-05-01T13:00:26.875Z,8.10
2023-05-01T13:03:14.815Z,5.70
2023-05-01T13:06:06.068Z,3.40
2023-05-01T13:08:41.671Z,4.70
2023-05-01T13:37:21.280Z,5.50
2023-05-01T13:39:49.464Z,4.00
2023-05-01T13:42:27.133Z,3.40
2023-05-01T13:44:57.214Z,3.70
2023-05-01T13:47:27.052Z,3.60
2023-05-01T13:49:55.896Z,5.20
2023-05-01T13:52:28.982Z,5.30
2023-05-01T13:55:03.393Z,7.50
2023-05-01T13:57:41.541Z,6.30
2023-05-01T14:00:17.537Z,4.00
2023-05-01T14:02:50.113Z,7.00
2023-05-01T14:05:28.065Z,3.30
2023-05-01T14:08:02.335Z,4.20
2023-05-01T14:10:35.000Z,3.00
2023-05-01T14:13:05.295Z,3.00
2023-05-01T14:15:36.169Z,5.20
2023-05-01T14:18:07.994Z,2.90
2023-05-01T14:20:35.884Z,4.90
2023-05-01T14:23:06.091Z,4.70
2023-05-01T14:25:48.243Z,5.00
2023-05-01T14:28:16.903Z,3.60
2023-05-01T14:30:51.068Z,4.00
2023-05-01T14:33:18.952Z,3.90
2023-05-01T14:35:51.264Z,4.80
2023-05-01T14:38:21.347Z,3.10
2023-05-01T14:40:54.383Z,4.00
2023-05-01T14:43:22.554Z,4.30
2023-05-01T14:45:55.128Z,3.80
2023-05-01T14:48:37.092Z,3.20
2023-05-01T14:51:08.282Z,3.40
2023-05-01T14:53:40.472Z,4.90
2023-05-01T14:56:08.981Z,4.80
2023-05-01T14:58:39.325Z,4.80
2023-05-01T15:01:07.381Z,4.70
2023-05-01T15:03:55.719Z,5.90
2023-05-01T15:06:24.961Z,3.90
2023-05-01T15:08:55.371Z,4.00
2023-05-01T15:11:25.936Z,7.90
2023-05-01T15:13:54.525Z,3.20
2023-05-01T15:16:22.413Z,4.70
2023-05-01T15:18:51.648Z,4.40
2023-05-01T15:21:26.376Z,4.80
2023-05-01T15:23:54.243Z,3.70
2023-05-01T15:26:29.857Z,5.80
2023-05-01T15:29:00.250Z,3.70
2023-05-01T15:31:28.423Z,2.70
2023-05-01T15:33:58.633Z,3.70
2023-05-01T15:36:27.022Z,6.30
2023-05-01T15:38:57.450Z,3.40
2023-05-01T15:41:25.605Z,2.70
2023-05-01T15:43:55.709Z,3.60
2023-05-01T15:46:25.368Z,6.30
2023-05-01T15:48:53.575Z,4.70
2023-05-01T15:51:21.760Z,3.70
2023-05-01T15:53:49.791Z,5.00
2023-05-01T15:56:17.743Z,8.10
2023-05-01T15:58:45.545Z,3.40
2023-05-01T16:01:18.216Z,6.30
2023-05-01T16:03:48.028Z,3.10
2023-05-01T16:06:18.374Z,3.60
2023-05-01T16:08:46.167Z,4.10
2023-05-01T16:11:14.029Z,3.50
2023-05-01T16:13:42.867Z,3.40
2023-05-01T16:16:20.028Z,4.70
2023-05-01T16:18:55.986Z,4.70
2023-05-01T16:21:41.088Z,5.10
2023-05-01T16:24:10.348Z,3.80
2023-05-01T16:26:41.839Z,4.00
2023-05-01T16:29:13.847Z,4.00
2023-05-01T16:31:47.392Z,5.80
2023-05-01T16:34:19.794Z,4.30
2023-05-01T16:36:52.489Z,6.30
2023-05-01T16:39:25.438Z,4.30
2023-05-01T16:41:56.967Z,5.20
2023-05-01T16:44:36.736Z,7.50
2023-05-01T16:47:07.237Z,6.20
2023-05-01T16:49:36.449Z,5.10
2023-05-01T16:52:06.925Z,5.70
2023-05-01T16:54:37.050Z,5.20
2023-05-01T16:57:07.315Z,8.00
2023-05-01T16:59:37.981Z,3.30
2023-05-01T17:02:06.917Z,4.40
2023-05-01T17:04:35.017Z,5.60
2023-05-01T17:07:08.090Z,6.00
2023-05-01T17:09:40.927Z,5.20
2023-05-01T17:12:11.157Z,5.10
2023-05-01T17:14:41.447Z,5.50
2023-05-01T17:17:11.444Z,7.50
2023-05-01T17:19:39.645Z,6.80
2023-05-01T17:22:10.072Z,4.50
2023-05-01T17:24:41.256Z,8.80
2023-05-01T17:27:13.667Z,11.10
2023-05-01T17:29:46.884Z,11.10
2023-05-01T17:32:25.848Z,10.50
2023-05-01T17:35:01.540Z,17.30
2023-05-01T17:37:32.264Z,22.70
2023-05-01T17:40:03.985Z,25.30
2023-05-01T17:42:35.096Z,21.10
2023-05-01T17:45:07.577Z,18.30
2023-05-01T17:47:36.306Z,16.90
2023-05-01T17:50:08.257Z,12.80
2023-05-01T17:52:38.582Z,11.50
2023-05-01T17:55:07.537Z,14.50
2023-05-01T17:57:37.931Z,10.50
2023-05-01T18:00:14.680Z,9.70
2023-05-01T18:02:44.908Z,16.60
2023-05-01T18:05:13.746Z,13.10
2023-05-01T18:07:46.678Z,11.90
2023-05-01T18:10:16.874Z,12.30
2023-05-01T18:12:49.893Z,18.90
2023-05-01T18:15:23.238Z,14.00
2023-05-01T18:17:51.600Z,21.30
2023-05-01T18:20:19.959Z,18.50
2023-05-01T18:22:47.864Z,13.40
2023-05-01T18:25:35.134Z,11.30
2023-05-01T18:28:27.811Z,10.50
2023-05-01T18:30:55.816Z,25.30
2023-05-01T18:33:23.778Z,27.40
2023-05-01T18:35:52.174Z,24.20
2023-05-01T18:38:20.484Z,24.90
2023-05-01T18:40:48.847Z,21.00
2023-05-01T18:43:19.868Z,21.90
2023-05-01T18:45:52.186Z,14.00
2023-05-01T18:48:20.945Z,13.80
2023-05-01T18:51:00.779Z,11.30
2023-05-01T18:53:43.301Z,10.50
2023-05-01T18:56:15.639Z,12.50
2023-05-01T18:58:43.725Z,11.50
2023-05-01T19:01:11.802Z,15.10
2023-05-01T19:03:40.509Z,15.50
2023-05-01T19:06:11.279Z,14.80
2023-05-01T19:08:39.333Z,11.30
2023-05-01T19:11:07.483Z,15.70
2023-05-01T19:13:37.669Z,22.20
2023-05-01T19:16:05.900Z,27.50
2023-05-01T19:18:41.201Z,23.30
2023-05-01T19:21:11.110Z,31.00
2023-05-01T19:23:43.252Z,26.80
2023-05-01T19:26:15.574Z,26.40
2023-05-01T19:28:45.878Z,34.10
2023-05-01T19:31:18.954Z,33.30
2023-05-01T19:33:53.840Z,33.10
2023-05-01T19:36:26.204Z,35.70
2023-05-01T19:38:54.442Z,37.40
2023-05-01T19:41:29.633Z,30.80
2023-05-01T19:44:02.573Z,30.40
2023-05-01T19:46:30.617Z,30.50
2023-05-01T19:48:58.523Z,39.60
2023-05-01T19:51:31.629Z,45.20
2023-05-01T19:53:59.648Z,35.80
2023-05-01T19:56:30.038Z,40.40
2023-05-01T19:59:00.247Z,40.20
2023-05-01T20:01:31.428Z,33.80
2023-05-01T20:03:59.346Z,37.20
2023-05-01T20:06:29.932Z,36.60
2023-05-01T20:09:00.032Z,29.10
2023-05-01T20:11:28.443Z,33.20
2023-05-01T20:13:56.590Z,28.20
2023-05-01T20:16:24.811Z,34.50
2023-05-01T20:18:56.375Z,31.30
2023-05-01T20:21:27.079Z,33.30
2023-05-01T20:24:00.147Z,36.20
2023-05-01T20:26:30.362Z,27.30
2023-05-01T20:28:58.693Z,28.90
2023-05-01T20:31:29.768Z,24.70
2023-05-01T20:34:01.166Z,23.90
2023-05-01T20:36:32.527Z,25.40
2023-05-01T20:39:00.507Z,21.90
2023-05-01T20:41:29.292Z,18.50
2023-05-01T20:43:57.121Z,24.20
2023-05-01T20:46:25.454Z,23.40
2023-05-01T20:48:56.074Z,18.80
2023-05-01T20:51:27.483Z,17.50
2023-05-01T20:53:57.614Z,16.20
2023-05-01T20:56:25.855Z,17.50
2023-05-01T20:59:00.303Z,19.80
2023-05-01T21:01:32.486Z,17.20
2023-05-01T21:04:06.634Z,17.70
2023-05-01T21:06:36.986Z,20.80
2023-05-01T21:09:10.989Z,17.20
2023-05-01T21:11:44.199Z,17.00
2023-05-01T21:14:12.220Z,15.10
2023-05-01T21:16:40.808Z,14.10
2023-05-01T21:19:11.227Z,13.10
2023-05-01T21:21:39.197Z,14.00
2023-05-01T21:24:20.332Z,14.60
2023-05-01T21:26:50.760Z,12.20
2023-05-01T21:29:20.784Z,11.70
2023-05-01T21:31:51.382Z,14.00
2023-05-01T21:34:21.590Z,16.60
2023-05-01T21:36:52.251Z,17.10
2023-05-01T21:41:52.565Z,16.70
2023-05-01T21:44:28.123Z,13.20
2023-05-01T21:47:00.576Z,14.30
2023-05-01T21:49:28.560Z,16.10
2023-05-01T21:52:01.916Z,20.10
2023-05-01T21:54:30.786Z,14.20
2023-05-01T21:56:59.979Z,14.80
2023-05-01T21:59:38.575Z,13.90
2023-05-01T22:02:10.868Z,10.70
2023-05-01T22:04:44.256Z,11.60
2023-05-01T22:07:14.475Z,12.90
2023-05-01T22:09:42.284Z,16.90
2023-05-01T22:12:12.203Z,14.60
2023-05-01T22:14:47.241Z,10.80
2023-05-01T22:17:24.073Z,11.30
2023-05-01T22:19:54.744Z,13.00
2023-05-01T22:22:25.881Z,9.30
2023-05-01T22:24:53.828Z,13.60
2023-05-01T22:27:22.274Z,9.60
2023-05-01T22:29:50.351Z,12.30
2023-05-01T22:32:18.296Z,9.80
2023-05-01T22:34:48.730Z,12.60
2023-05-01T22:39:47.652Z,10.10
2023-05-01T22:42:21.371Z,13.30
2023-05-01T22:44:49.533Z,14.40
2023-05-01T22:47:17.567Z,12.80
2023-05-01T22:49:47.799Z,10.20
2023-05-01T22:52:16.628Z,10.50
2023-05-01T22:54:52.686Z,9.50
2023-05-01T22:57:20.558Z,11.10
2023-05-01T22:59:48.767Z,9.70
2023-05-01T23:02:19.938Z,9.00
2023-05-01T23:04:48.238Z,10.20
2023-05-01T23:07:18.789Z,11.20
2023-05-01T23:09:47.300Z,11.70
2023-05-01T23:12:22.724Z,12.70
2023-05-01T23:14:50.703Z,10.10
2023-05-01T23:17:18.577Z,14.70
2023-05-01T23:19:46.497Z,11.20
2023-05-01T23:22:17.917Z,16.00
2023-05-01T23:24:50.898Z,9.30
2023-05-01T23:27:22.675Z,17.10
2023-05-01T23:29:56.579Z,11.80
2023-05-01T23:32:27.955Z,16.10
2023-05-01T23:35:01.185Z,17.10
2023-05-01T23:37:31.471Z,10.90
2023-05-01T23:40:00.061Z,15.60
2023-05-01T23:42:31.125Z,11.40
2023-05-01T23:45:04.740Z,13.80
2023-05-01T23:47:33.132Z,13.90
2023-05-01T23:50:06.094Z,13.00
2023-05-01T23:52:36.266Z,10.80
2023-05-01T23:55:06.690Z,13.80
2023-05-01T23:57:37.270Z,19.10
